Flight Track Log - Related Links

Times and Time Zones

All times are in EDT time to prevent confusion due to time zone crossing. See the UAL582 flight status page for this flight to view local times or setup timezone preferences in your user account.

Time Position Orientation Groundspeed Altitude Reporting Facility
EDT Latitude Longitude Course Direction KTS MPH feet Rate Location/Type
Fri 05:34:30 PM 43.6667 -79.6333 304° West 40 46 1,000  Level Toronto Center
Fri 05:35:30 PM 43.6167 -79.6833 216° Southwest 220 253 2,900 2,750 Climbing Toronto Center
Fri 05:36:30 PM 43.5833 -79.7500 235° Southwest 240 276 6,500 2,050 Climbing Toronto Center
Fri 05:37:00 PM 43.6180 -79.9883 270° West  Level Estimated
Fri 05:37:30 PM 43.6000 -79.8333 285° West 250 288 7,000  Level Toronto Center
Fri 05:38:00 PM 43.5980 -80.1074 277° West  Level Estimated
Fri 05:38:30 PM 43.6167 -79.9167 285° West 250 288 7,000  Level Toronto Center
Fri 05:39:00 PM 43.5779 -80.2265 270° West  Level Estimated
Fri 05:39:30 PM 43.6500 -80.0167 295° West 250 288 9,800  Level Toronto Center
Fri 05:40:00 PM 43.6168 -80.3072 304° West  Level FlightAware Approximate
Fri 05:40:30 PM 43.6667 -80.1167 283° West 280 322 12,200  Level Toronto Center
Fri 05:41:30 PM 43.6833 -80.2333 281° West 310 357 15,200 2,850 Climbing Toronto Center
Fri 05:42:30 PM 43.7000 -80.3500 281° West 320 368 17,900 2,400 Climbing Toronto Center
Fri 05:43:30 PM 43.7333 -80.4667 292° West 330 380 20,000 2,200 Climbing Toronto Center
Fri 05:44:30 PM 43.7333 -80.6333 270° West 350 403 22,300 1,850 Climbing Toronto Center
Fri 05:45:30 PM 43.7000 -80.7333 245° Southwest 370 426 23,700 1,950 Climbing Toronto Center
Fri 05:46:30 PM 43.6500 -80.9000 248° West 390 449 26,200 2,300 Climbing Toronto Center
Fri 05:47:30 PM 43.6167 -81.0333 251° West 380 437 28,300 2,050 Climbing Toronto Center
Fri 05:48:30 PM 43.5833 -81.1833 253° West 380 437 30,300 1,350 Climbing Toronto Center
Fri 05:49:30 PM 43.5667 -81.3167 260° West 380 437 31,000 1,050 Climbing Toronto Center
Fri 05:50:30 PM 43.5333 -81.4500 251° West 400 460 32,400 1,250 Climbing Toronto Center
Fri 05:51:30 PM 43.5000 -81.6167 255° West 410 472 33,500 1,050 Climbing Toronto Center
Fri 05:52:30 PM 43.4667 -81.7667 253° West 420 483 34,500 968 Climbing Toronto Center
Fri 05:54:05 PM 43.4242 -81.9964 256° West 401 461 36,000 573 Climbing Cleveland Center
Fri 05:55:07 PM 43.3906 -82.1356 252° West 388 447 36,000  Level Cleveland Center
Fri 05:56:10 PM 43.3575 -82.2786 252° West 392 451 36,000 -48 Level Cleveland Center
Fri 05:57:12 PM 43.3178 -82.4467 252° West 389 448 35,900 -532 Descending Cleveland Center
Fri 05:58:14 PM 43.2850 -82.5889 252° West 392 451 34,900 -919 Descending Cleveland Center
Fri 05:59:16 PM 43.2483 -82.7364 251° West 407 468 34,000 -919 Descending Cleveland Center
Fri 06:00:18 PM 43.2081 -82.8817 249° West 410 472 33,000 -823 Descending Cleveland Center
Fri 06:01:20 PM 43.1683 -83.0278 250° West 412 474 32,300 -919 Descending Cleveland Center
Fri 06:02:22 PM 43.1194 -83.2000 249° West 408 470 31,100 -1,065 Descending Cleveland Center
Fri 06:03:24 PM 43.0803 -83.3392 249° West 397 457 30,100 -968 Descending Cleveland Center
Fri 06:04:26 PM 43.0400 -83.4806 249° West 401 461 29,100 -968 Descending Cleveland Center
Fri 06:05:28 PM 43.0008 -83.6194 249° West 396 456 28,100 -532 Descending Cleveland Center
Fri 06:06:30 PM 42.9653 -83.7600 251° West 395 455 28,000 -48 Descending Cleveland Center
Fri 06:07:32 PM 42.9478 -83.9306 262° West 383 441 28,000  Level Cleveland Center
Fri 06:08:35 PM 42.9342 -84.0736 263° West 382 440 28,000  Level Cleveland Center
Fri 06:09:37 PM 42.9208 -84.2142 263° West 377 434 28,000  Level Cleveland Center
Fri 06:10:39 PM 42.9061 -84.3678 263° West 380 437 28,000  Level Cleveland Center
Fri 06:11:40 PM 42.8903 -84.5114 261° West 380 437 28,000  Level Chicago Center
Fri 06:12:42 PM 42.8767 -84.6531 263° West 380 437 28,000  Level Chicago Center
Fri 06:13:44 PM 42.8625 -84.7939 262° West 377 434 28,000  Level Chicago Center
Fri 06:14:47 PM 42.8475 -84.9347 262° West 375 432 28,000  Level Chicago Center
Fri 06:15:49 PM 42.8294 -85.1028 262° West 375 432 28,000  Level Chicago Center
Fri 06:16:51 PM 42.8144 -85.2428 262° West 374 430 28,000  Level Chicago Center
Fri 06:17:53 PM 42.7994 -85.3822 262° West 372 428 28,000 -1,200 Level Chicago Center
Fri 06:23:31 PM 42.6880 -86.0420 262° West 100 115 20,000 -1,322 Descending FlightAware ADS-B
Fri 06:23:56 PM 42.6870 -86.0550 264° West 100 115 20,000  Level FlightAware ADS-B
Fri 06:24:32 PM 42.6840 -86.0740 258° West 100 115 20,000  Level FlightAware ADS-B
Fri 06:25:30 PM 42.6800 -86.1040 260° West 100 115 20,000  Level FlightAware ADS-B
Fri 06:26:29 PM 42.6750 -86.1350 258° West 100 115 20,000  Level FlightAware ADS-B
Fri 06:26:53 PM 42.6730 -86.1480 258° West 100 115 20,000 -2,033 Level FlightAware ADS-B
Fri 06:31:30 PM 42.4800 -87.0220 254° West 100 115 9,800 -2,007 Descending FlightAware ADS-B
Fri 06:31:58 PM 42.4770 -87.0360 254° West 100 115 9,800  Level FlightAware ADS-B
Fri 06:32:23 PM 42.4740 -87.0490 253° West 100 115 9,800  Level FlightAware ADS-B
Fri 06:33:01 PM 42.4700 -87.0690 255° West 100 115 9,800  Level FlightAware ADS-B
Fri 06:33:13 PM 42.4690 -87.0750 257° West 100 115 9,800  Level FlightAware ADS-B
Fri 06:33:25 PM 42.4680 -87.0810 257° West 100 115 9,800 -842 Level FlightAware ADS-B
Fri 06:34:10 PM 42.3667 -87.2667 257° West 297 342 9,000 -1,200 Descending Chicago TRACON
Fri 06:35:10 PM 42.2833 -87.2833 188° South 278 320 7,700 -1,250 Descending Chicago TRACON
Fri 06:36:10 PM 42.2167 -87.3333 209° Southwest 256 295 6,500 -850 Descending Chicago TRACON
Fri 06:37:10 PM 42.1667 -87.3833 217° Southwest 246 283 6,000 -350 Descending Chicago TRACON
Fri 06:38:10 PM 42.1167 -87.4333 217° Southwest 244 281 5,800 -350 Descending Chicago TRACON
Fri 06:39:10 PM 42.0500 -87.4833 209° Southwest 243 280 5,300 -378 Descending Chicago TRACON
Fri 06:40:17 PM 42.0000 -87.5500 225° Southwest 208 239 5,000 -198 Descending Chicago TRACON
Fri 06:41:11 PM 41.9833 -87.6000 246° West 200 230 4,900 -429 Descending Chicago TRACON
Fri 06:41:41 PM 41.9831 -87.6381 269° West 199 229 4,400 -1,100 Descending Chicago Center
Fri 06:42:11 PM 41.9833 -87.6833 270° West 189 217 3,800 -1,000 Descending Chicago TRACON
Fri 06:43:11 PM 41.9833 -87.7333 270° West 146 168 2,900 -850 Descending Chicago TRACON
Fri 06:44:11 PM 41.9833 -87.7833 270° West 151 174 2,100 -800 Descending Chicago TRACON
Fri 06:45:11 PM 41.9833 -87.8500 270° West 134 154 1,300 -800 Descending Chicago TRACON

Login

Don't have an account? Register now (free) for customized features, flight alerts, and more!